sensor_id;sensor_type;location;lat;lon;timestamp;pressure;altitude;pressure_sealevel;temperature
82400;BMP280;72039;48.812;8.198;2023-09-18T00:01:55;99641.25;;;22.52
82400;BMP280;72039;48.812;8.198;2023-09-18T00:04:20;99644.78;;;22.53
82400;BMP280;72039;48.812;8.198;2023-09-18T00:06:46;99649.81;;;22.48
82400;BMP280;72039;48.812;8.198;2023-09-18T00:09:12;99656.16;;;22.47
82400;BMP280;72039;48.812;8.198;2023-09-18T00:11:39;99650.50;;;22.47
82400;BMP280;72039;48.812;8.198;2023-09-18T00:14:07;99639.91;;;22.47
82400;BMP280;72039;48.812;8.198;2023-09-18T00:16:33;99666.09;;;22.46
82400;BMP280;72039;48.812;8.198;2023-09-18T00:18:58;99669.63;;;22.44
82400;BMP280;72039;48.812;8.198;2023-09-18T00:21:24;99663.97;;;22.44
82400;BMP280;72039;48.812;8.198;2023-09-18T00:23:56;99663.28;;;22.44
82400;BMP280;72039;48.812;8.198;2023-09-18T00:26:23;99653.41;;;22.45
82400;BMP280;72039;48.812;8.198;2023-09-18T00:28:48;99652.63;;;22.48
82400;BMP280;72039;48.812;8.198;2023-09-18T00:31:15;99653.28;;;22.51
82400;BMP280;72039;48.812;8.198;2023-09-18T00:33:41;99642.75;;;22.49
82400;BMP280;72039;48.812;8.198;2023-09-18T00:36:06;99648.41;;;22.47
82400;BMP280;72039;48.812;8.198;2023-09-18T00:38:31;99654.16;;;22.41
82400;BMP280;72039;48.812;8.198;2023-09-18T00:40:57;99652.78;;;22.38
82400;BMP280;72039;48.812;8.198;2023-09-18T00:43:22;99654.19;;;22.35
82400;BMP280;72039;48.812;8.198;2023-09-18T00:45:48;99660.66;;;22.29
82400;BMP280;72039;48.812;8.198;2023-09-18T00:48:15;99665.66;;;22.23
82400;BMP280;72039;48.812;8.198;2023-09-18T00:50:41;99662.19;;;22.20
82400;BMP280;72039;48.812;8.198;2023-09-18T00:53:08;99662.88;;;22.21
82400;BMP280;72039;48.812;8.198;2023-09-18T00:55:37;99660.72;;;22.23
82400;BMP280;72039;48.812;8.198;2023-09-18T00:58:07;99653.59;;;22.28
82400;BMP280;72039;48.812;8.198;2023-09-18T01:00:32;99653.53;;;22.32
82400;BMP280;72039;48.812;8.198;2023-09-18T01:02:58;99654.19;;;22.37
82400;BMP280;72039;48.812;8.198;2023-09-18T01:05:24;99653.44;;;22.41
82400;BMP280;72039;48.812;8.198;2023-09-18T01:07:49;99656.88;;;22.47
82400;BMP280;72039;48.812;8.198;2023-09-18T01:10:15;99666.72;;;22.52
82400;BMP280;72039;48.812;8.198;2023-09-18T01:15:30;99651.00;;;22.64
82400;BMP280;72039;48.812;8.198;2023-09-18T01:17:58;99659.38;;;22.70
82400;BMP280;72039;48.812;8.198;2023-09-18T01:20:24;99667.09;;;22.73
82400;BMP280;72039;48.812;8.198;2023-09-18T01:22:49;99667.69;;;22.82
82400;BMP280;72039;48.812;8.198;2023-09-18T01:25:15;99657.63;;;22.93
82400;BMP280;72039;48.812;8.198;2023-09-18T01:27:41;99649.72;;;23.00
82400;BMP280;72039;48.812;8.198;2023-09-18T01:30:08;99654.63;;;23.03
82400;BMP280;72039;48.812;8.198;2023-09-18T01:32:36;99660.28;;;23.03
82400;BMP280;72039;48.812;8.198;2023-09-18T01:35:07;99678.72;;;23.02
82400;BMP280;72039;48.812;8.198;2023-09-18T01:37:35;99695.09;;;22.96
82400;BMP280;72039;48.812;8.198;2023-09-18T01:40:04;99711.38;;;22.93
82400;BMP280;72039;48.812;8.198;2023-09-18T01:42:32;99710.72;;;22.91
82400;BMP280;72039;48.812;8.198;2023-09-18T01:44:58;99714.28;;;22.87
82400;BMP280;72039;48.812;8.198;2023-09-18T01:47:24;99715.00;;;22.88
82400;BMP280;72039;48.812;8.198;2023-09-18T01:49:49;99726.28;;;22.90
82400;BMP280;72039;48.812;8.198;2023-09-18T01:52:15;99744.03;;;22.86
82400;BMP280;72039;48.812;8.198;2023-09-18T01:54:40;99751.16;;;22.79
82400;BMP280;72039;48.812;8.198;2023-09-18T01:57:06;99754.06;;;22.75
82400;BMP280;72039;48.812;8.198;2023-09-18T01:59:35;99766.78;;;22.74
82400;BMP280;72039;48.812;8.198;2023-09-18T02:02:00;99786.59;;;22.76
82400;BMP280;72039;48.812;8.198;2023-09-18T02:04:30;99780.88;;;22.78
82400;BMP280;72039;48.812;8.198;2023-09-18T02:06:58;99763.22;;;22.77
82400;BMP280;72039;48.812;8.198;2023-09-18T02:09:23;99745.63;;;22.71
82400;BMP280;72039;48.812;8.198;2023-09-18T02:11:51;99733.03;;;22.62
82400;BMP280;72039;48.812;8.198;2023-09-18T02:14:19;99742.34;;;22.52
82400;BMP280;72039;48.812;8.198;2023-09-18T02:16:44;99736.03;;;22.47
82400;BMP280;72039;48.812;8.198;2023-09-18T02:19:11;99733.94;;;22.46
82400;BMP280;72039;48.812;8.198;2023-09-18T02:21:38;99734.66;;;22.44
82400;BMP280;72039;48.812;8.198;2023-09-18T02:24:03;99740.34;;;22.42
82400;BMP280;72039;48.812;8.198;2023-09-18T02:26:29;99725.59;;;22.36
82400;BMP280;72039;48.812;8.198;2023-09-18T02:29:05;99720.03;;;22.29
82400;BMP280;72039;48.812;8.198;2023-09-18T02:31:31;99714.44;;;22.21
82400;BMP280;72039;48.812;8.198;2023-09-18T02:33:56;99699.75;;;22.11
82400;BMP280;72039;48.812;8.198;2023-09-18T02:36:22;99692.75;;;22.03
82400;BMP280;72039;48.812;8.198;2023-09-18T02:39:13;99687.13;;;22.01
82400;BMP280;72039;48.812;8.198;2023-09-18T02:41:39;99658.88;;;22.01
82400;BMP280;72039;48.812;8.198;2023-09-18T02:44:06;99668.75;;;22.02
82400;BMP280;72039;48.812;8.198;2023-09-18T02:46:32;99687.88;;;21.98
82400;BMP280;72039;48.812;8.198;2023-09-18T02:48:58;99692.16;;;21.93
82400;BMP280;72039;48.812;8.198;2023-09-18T02:51:23;99692.19;;;21.91
82400;BMP280;72039;48.812;8.198;2023-09-18T02:53:50;99697.16;;;21.90
82400;BMP280;72039;48.812;8.198;2023-09-18T02:56:15;99680.25;;;21.86
82400;BMP280;72039;48.812;8.198;2023-09-18T02:58:41;99693.69;;;21.82
82400;BMP280;72039;48.812;8.198;2023-09-18T03:01:07;99695.16;;;21.76
82400;BMP280;72039;48.812;8.198;2023-09-18T03:03:33;99705.75;;;21.76
82400;BMP280;72039;48.812;8.198;2023-09-18T03:06:04;99720.59;;;21.74
82400;BMP280;72039;48.812;8.198;2023-09-18T03:08:30;99734.69;;;21.76
82400;BMP280;72039;48.812;8.198;2023-09-18T03:10:55;99765.75;;;21.76
82400;BMP280;72039;48.812;8.198;2023-09-18T03:13:22;99809.50;;;21.79
82400;BMP280;72039;48.812;8.198;2023-09-18T03:15:47;99833.53;;;21.76
82400;BMP280;72039;48.812;8.198;2023-09-18T03:18:13;99845.53;;;21.75
82400;BMP280;72039;48.812;8.198;2023-09-18T03:20:41;99845.53;;;21.75
82400;BMP280;72039;48.812;8.198;2023-09-18T03:23:07;99862.47;;;21.79
82400;BMP280;72039;48.812;8.198;2023-09-18T03:25:35;99872.38;;;21.78
82400;BMP280;72039;48.812;8.198;2023-09-18T03:28:02;99905.59;;;21.73
82400;BMP280;72039;48.812;8.198;2023-09-18T03:30:28;99899.31;;;21.61
82400;BMP280;72039;48.812;8.198;2023-09-18T03:32:54;99901.47;;;21.54
82400;BMP280;72039;48.812;8.198;2023-09-18T03:35:20;99905.78;;;21.35
82400;BMP280;72039;48.812;8.198;2023-09-18T03:37:47;99879.06;;;21.17
82400;BMP280;72039;48.812;8.198;2023-09-18T03:40:14;99852.31;;;21.06
82400;BMP280;72039;48.812;8.198;2023-09-18T03:42:40;99806.47;;;21.06
82400;BMP280;72039;48.812;8.198;2023-09-18T03:45:06;99802.22;;;21.11
82400;BMP280;72039;48.812;8.198;2023-09-18T03:47:34;99775.44;;;21.12
82400;BMP280;72039;48.812;8.198;2023-09-18T03:50:02;99761.28;;;21.14
82400;BMP280;72039;48.812;8.198;2023-09-18T03:52:27;99752.81;;;21.18
82400;BMP280;72039;48.812;8.198;2023-09-18T03:54:53;99727.41;;;21.22
82400;BMP280;72039;48.812;8.198;2023-09-18T03:57:18;99719.59;;;21.24
82400;BMP280;72039;48.812;8.198;2023-09-18T03:59:43;99701.94;;;21.28
82400;BMP280;72039;48.812;8.198;2023-09-18T04:02:11;99667.34;;;21.30
82400;BMP280;72039;48.812;8.198;2023-09-18T04:04:43;99651.81;;;21.33
82400;BMP280;72039;48.812;8.198;2023-09-18T04:07:09;99627.81;;;21.34
82400;BMP280;72039;48.812;8.198;2023-09-18T04:09:35;99629.91;;;21.35
82400;BMP280;72039;48.812;8.198;2023-09-18T04:12:04;99634.13;;;21.36
82400;BMP280;72039;48.812;8.198;2023-09-18T04:14:35;99611.53;;;21.40
82400;BMP280;72039;48.812;8.198;2023-09-18T04:17:02;99605.88;;;21.42
82400;BMP280;72039;48.812;8.198;2023-09-18T04:19:28;99594.59;;;21.40
82400;BMP280;72039;48.812;8.198;2023-09-18T04:21:54;99586.88;;;21.37
82400;BMP280;72039;48.812;8.198;2023-09-18T04:24:19;99562.22;;;21.33
82400;BMP280;72039;48.812;8.198;2023-09-18T04:26:45;99559.44;;;21.29
82400;BMP280;72039;48.812;8.198;2023-09-18T04:29:12;99558.03;;;21.28
82400;BMP280;72039;48.812;8.198;2023-09-18T04:31:37;99559.44;;;21.27
82400;BMP280;72039;48.812;8.198;2023-09-18T04:34:06;99561.53;;;21.31
82400;BMP280;72039;48.812;8.198;2023-09-18T04:36:33;99548.81;;;21.34
82400;BMP280;72039;48.812;8.198;2023-09-18T04:38:58;99574.91;;;21.34
82400;BMP280;72039;48.812;8.198;2023-09-18T04:41:30;99586.88;;;21.35
82400;BMP280;72039;48.812;8.198;2023-09-18T04:43:55;99587.63;;;21.33
82400;BMP280;72039;48.812;8.198;2023-09-18T04:46:22;99579.84;;;21.32
82400;BMP280;72039;48.812;8.198;2023-09-18T04:48:49;99576.31;;;21.33
82400;BMP280;72039;48.812;8.198;2023-09-18T04:51:17;99584.78;;;21.31
82400;BMP280;72039;48.812;8.198;2023-09-18T04:53:42;99584.81;;;21.29
82400;BMP280;72039;48.812;8.198;2023-09-18T04:56:11;99591.91;;;21.30
82400;BMP280;72039;48.812;8.198;2023-09-18T04:58:39;99602.47;;;21.30
82400;BMP280;72039;48.812;8.198;2023-09-18T05:01:10;99606.69;;;21.29
82400;BMP280;72039;48.812;8.198;2023-09-18T05:03:36;99598.25;;;21.29
82400;BMP280;72039;48.812;8.198;2023-09-18T05:06:02;99594.00;;;21.30
82400;BMP280;72039;48.812;8.198;2023-09-18T05:08:30;99600.34;;;21.32
82400;BMP280;72039;48.812;8.198;2023-09-18T05:10:56;99604.53;;;21.33
82400;BMP280;72039;48.812;8.198;2023-09-18T05:13:24;99620.09;;;21.32
82400;BMP280;72039;48.812;8.198;2023-09-18T05:15:57;99613.00;;;21.31
82400;BMP280;72039;48.812;8.198;2023-09-18T05:18:25;99617.28;;;21.30
82400;BMP280;72039;48.812;8.198;2023-09-18T05:20:51;99613.03;;;21.29
82400;BMP280;72039;48.812;8.198;2023-09-18T05:23:16;99614.47;;;21.28
82400;BMP280;72039;48.812;8.198;2023-09-18T05:25:43;99615.88;;;21.29
82400;BMP280;72039;48.812;8.198;2023-09-18T05:28:09;99617.97;;;21.31
82400;BMP280;72039;48.812;8.198;2023-09-18T05:30:35;99625.75;;;21.30
82400;BMP280;72039;48.812;8.198;2023-09-18T05:33:04;99618.66;;;21.31
82400;BMP280;72039;48.812;8.198;2023-09-18T05:35:31;99635.59;;;21.33
82400;BMP280;72039;48.812;8.198;2023-09-18T05:37:58;99632.06;;;21.33
82400;BMP280;72039;48.812;8.198;2023-09-18T05:40:26;99637.00;;;21.32
82400;BMP280;72039;48.812;8.198;2023-09-18T05:42:55;99635.59;;;21.31
82400;BMP280;72039;48.812;8.198;2023-09-18T05:45:21;99644.78;;;21.30
82400;BMP280;72039;48.812;8.198;2023-09-18T05:47:47;99642.69;;;21.30
82400;BMP280;72039;48.812;8.198;2023-09-18T05:50:15;99656.09;;;21.27
82400;BMP280;72039;48.812;8.198;2023-09-18T05:52:45;99658.22;;;21.25
82400;BMP280;72039;48.812;8.198;2023-09-18T05:55:14;99664.63;;;21.21
82400;BMP280;72039;48.812;8.198;2023-09-18T05:57:40;99683.66;;;21.19
82400;BMP280;72039;48.812;8.198;2023-09-18T06:00:06;99696.41;;;21.14
82400;BMP280;72039;48.812;8.198;2023-09-18T06:02:33;99694.31;;;21.10
82400;BMP280;72039;48.812;8.198;2023-09-18T06:04:59;99688.00;;;21.06
82400;BMP280;72039;48.812;8.198;2023-09-18T06:07:29;99683.78;;;21.05
82400;BMP280;72039;48.812;8.198;2023-09-18T06:09:56;99680.97;;;21.05
82400;BMP280;72039;48.812;8.198;2023-09-18T06:12:22;99688.00;;;21.06
82400;BMP280;72039;48.812;8.198;2023-09-18T06:14:47;99698.59;;;21.05
82400;BMP280;72039;48.812;8.198;2023-09-18T06:17:13;99692.25;;;21.03
82400;BMP280;72039;48.812;8.198;2023-09-18T06:19:43;99697.91;;;21.03
82400;BMP280;72039;48.812;8.198;2023-09-18T06:22:09;99695.09;;;21.00
82400;BMP280;72039;48.812;8.198;2023-09-18T06:24:35;99706.38;;;20.98
82400;BMP280;72039;48.812;8.198;2023-09-18T06:27:02;99708.50;;;21.00
82400;BMP280;72039;48.812;8.198;2023-09-18T06:29:34;99729.66;;;20.99
82400;BMP280;72039;48.812;8.198;2023-09-18T06:32:03;99738.84;;;20.93
82400;BMP280;72039;48.812;8.198;2023-09-18T06:34:28;99748.72;;;20.92
82400;BMP280;72039;48.812;8.198;2023-09-18T06:36:54;99740.25;;;20.92
82400;BMP280;72039;48.812;8.198;2023-09-18T06:39:20;99745.91;;;20.92
82400;BMP280;72039;48.812;8.198;2023-09-18T06:41:48;99740.25;;;20.90
82400;BMP280;72039;48.812;8.198;2023-09-18T06:44:13;99746.63;;;20.93
82400;BMP280;72039;48.812;8.198;2023-09-18T06:46:39;99751.53;;;20.94
82400;BMP280;72039;48.812;8.198;2023-09-18T06:49:06;99760.00;;;20.94
82400;BMP280;72039;48.812;8.198;2023-09-18T06:51:31;99764.94;;;20.92
82400;BMP280;72039;48.812;8.198;2023-09-18T06:53:57;99765.66;;;20.92
82400;BMP280;72039;48.812;8.198;2023-09-18T06:56:25;99752.91;;;20.99
82400;BMP280;72039;48.812;8.198;2023-09-18T06:58:51;99759.97;;;21.03
82400;BMP280;72039;48.812;8.198;2023-09-18T07:01:20;99751.44;;;21.07
82400;BMP280;72039;48.812;8.198;2023-09-18T07:03:50;99754.25;;;21.13
82400;BMP280;72039;48.812;8.198;2023-09-18T07:06:17;99758.44;;;21.16
82400;BMP280;72039;48.812;8.198;2023-09-18T07:08:47;99766.91;;;21.20
82400;BMP280;72039;48.812;8.198;2023-09-18T07:11:18;99780.97;;;21.26
82400;BMP280;72039;48.812;8.198;2023-09-18T07:13:46;99765.44;;;21.27
82400;BMP280;72039;48.812;8.198;2023-09-18T07:16:11;99772.50;;;21.28
82400;BMP280;72039;48.812;8.198;2023-09-18T07:18:39;99773.19;;;21.26
82400;BMP280;72039;48.812;8.198;2023-09-18T07:21:05;99772.53;;;21.24
82400;BMP280;72039;48.812;8.198;2023-09-18T07:23:40;99775.34;;;21.26
82400;BMP280;72039;48.812;8.198;2023-09-18T07:26:05;99785.94;;;21.25
82400;BMP280;72039;48.812;8.198;2023-09-18T07:28:31;99788.00;;;21.29
82400;BMP280;72039;48.812;8.198;2023-09-18T07:30:57;99795.06;;;21.28
82400;BMP280;72039;48.812;8.198;2023-09-18T07:33:22;99778.13;;;21.30
82400;BMP280;72039;48.812;8.198;2023-09-18T07:35:49;99785.88;;;21.30
82400;BMP280;72039;48.812;8.198;2023-09-18T07:38:17;99776.00;;;21.29
82400;BMP280;72039;48.812;8.198;2023-09-18T07:40:45;99776.00;;;21.29
82400;BMP280;72039;48.812;8.198;2023-09-18T07:43:11;99776.72;;;21.29
82400;BMP280;72039;48.812;8.198;2023-09-18T07:45:39;99778.81;;;21.31
82400;BMP280;72039;48.812;8.198;2023-09-18T07:48:07;99769.69;;;21.28
82400;BMP280;72039;48.812;8.198;2023-09-18T07:50:34;99766.88;;;21.26
82400;BMP280;72039;48.812;8.198;2023-09-18T07:53:00;99776.03;;;21.24
82400;BMP280;72039;48.812;8.198;2023-09-18T07:55:28;99769.72;;;21.22
82400;BMP280;72039;48.812;8.198;2023-09-18T07:57:55;99769.69;;;21.24
82400;BMP280;72039;48.812;8.198;2023-09-18T08:00:21;99775.38;;;21.22
82400;BMP280;72039;48.812;8.198;2023-09-18T08:02:48;99762.69;;;21.21
82400;BMP280;72039;48.812;8.198;2023-09-18T08:05:18;99748.56;;;21.21
82400;BMP280;72039;48.812;8.198;2023-09-18T08:07:44;99737.28;;;21.19
82400;BMP280;72039;48.812;8.198;2023-09-18T08:10:09;99731.63;;;21.19
82400;BMP280;72039;48.812;8.198;2023-09-18T08:12:35;99748.56;;;21.21
82400;BMP280;72039;48.812;8.198;2023-09-18T08:15:02;99758.41;;;21.24
82400;BMP280;72039;48.812;8.198;2023-09-18T08:17:28;99738.66;;;21.24
82400;BMP280;72039;48.812;8.198;2023-09-18T08:19:54;99720.31;;;21.25
82400;BMP280;72039;48.812;8.198;2023-09-18T08:22:22;99737.97;;;21.25
82400;BMP280;72039;48.812;8.198;2023-09-18T08:24:52;99751.31;;;21.27
82400;BMP280;72039;48.812;8.198;2023-09-18T08:27:19;99749.91;;;21.30
82400;BMP280;72039;48.812;8.198;2023-09-18T08:29:45;99761.16;;;21.34
82400;BMP280;72039;48.812;8.198;2023-09-18T08:32:12;99764.69;;;21.37
82400;BMP280;72039;48.812;8.198;2023-09-18T08:34:37;99751.25;;;21.39
82400;BMP280;72039;48.812;8.198;2023-09-18T08:37:03;99739.97;;;21.39
82400;BMP280;72039;48.812;8.198;2023-09-18T08:39:29;99751.94;;;21.42
82400;BMP280;72039;48.812;8.198;2023-09-18T08:42:01;99750.50;;;21.43
82400;BMP280;72039;48.812;8.198;2023-09-18T08:44:29;99772.41;;;21.42
82400;BMP280;72039;48.812;8.198;2023-09-18T08:46:55;99762.53;;;21.41
82400;BMP280;72039;48.812;8.198;2023-09-18T08:49:23;99762.47;;;21.43
82400;BMP280;72039;48.812;8.198;2023-09-18T08:51:50;99770.22;;;21.47
82400;BMP280;72039;48.812;8.198;2023-09-18T08:54:16;99774.44;;;21.50
82400;BMP280;72039;48.812;8.198;2023-09-18T08:56:43;99787.84;;;21.51
82400;BMP280;72039;48.812;8.198;2023-09-18T08:59:12;99796.31;;;21.53
82400;BMP280;72039;48.812;8.198;2023-09-18T09:01:37;99799.81;;;21.56
82400;BMP280;72039;48.812;8.198;2023-09-18T09:04:03;99811.78;;;21.61
82400;BMP280;72039;48.812;8.198;2023-09-18T09:06:29;99824.44;;;21.64
82400;BMP280;72039;48.812;8.198;2023-09-18T09:08:58;99826.53;;;21.67
82400;BMP280;72039;48.812;8.198;2023-09-18T09:11:28;99828.66;;;21.69
82400;BMP280;72039;48.812;8.198;2023-09-18T09:14:14;99820.88;;;21.71
82400;BMP280;72039;48.812;8.198;2023-09-18T09:16:51;99823.00;;;21.71
82400;BMP280;72039;48.812;8.198;2023-09-18T09:19:18;99810.31;;;21.68
82400;BMP280;72039;48.812;8.198;2023-09-18T09:21:44;99804.66;;;21.68
82400;BMP280;72039;48.812;8.198;2023-09-18T09:24:12;99791.94;;;21.71
82400;BMP280;72039;48.812;8.198;2023-09-18T09:26:42;99789.81;;;21.71
82400;BMP280;72039;48.812;8.198;2023-09-18T09:29:19;99797.53;;;21.75
82400;BMP280;72039;48.812;8.198;2023-09-18T09:31:45;99784.09;;;21.77
82400;BMP280;72039;48.812;8.198;2023-09-18T09:34:12;99790.44;;;21.80
82400;BMP280;72039;48.812;8.198;2023-09-18T09:36:54;99798.91;;;21.80
82400;BMP280;72039;48.812;8.198;2023-09-18T09:39:20;99797.50;;;21.81
82400;BMP280;72039;48.812;8.198;2023-09-18T09:41:47;99785.44;;;21.85
82400;BMP280;72039;48.812;8.198;2023-09-18T09:44:13;99800.28;;;21.85
82400;BMP280;72039;48.812;8.198;2023-09-18T09:46:49;99804.50;;;21.88
82400;BMP280;72039;48.812;8.198;2023-09-18T09:49:15;99800.25;;;21.89
82400;BMP280;72039;48.812;8.198;2023-09-18T09:51:43;99802.38;;;21.91
82400;BMP280;72039;48.812;8.198;2023-09-18T09:54:09;99798.84;;;21.90
82400;BMP280;72039;48.812;8.198;2023-09-18T09:56:46;99810.13;;;21.90
82400;BMP280;72039;48.812;8.198;2023-09-18T09:59:13;99803.75;;;21.92
82400;BMP280;72039;48.812;8.198;2023-09-18T10:01:41;99806.53;;;21.96
82400;BMP280;72039;48.812;8.198;2023-09-18T10:04:14;99827.00;;;21.98
82400;BMP280;72039;48.812;8.198;2023-09-18T10:06:52;99819.94;;;22.01
82400;BMP280;72039;48.812;8.198;2023-09-18T10:09:20;99798.72;;;22.02
82400;BMP280;72039;48.812;8.198;2023-09-18T10:11:51;99819.91;;;22.03
82400;BMP280;72039;48.812;8.198;2023-09-18T10:14:22;99826.25;;;22.04
82400;BMP280;72039;48.812;8.198;2023-09-18T10:16:56;99816.31;;;22.07
82400;BMP280;72039;48.812;8.198;2023-09-18T10:19:29;99814.19;;;22.10
82400;BMP280;72039;48.812;8.198;2023-09-18T10:24:46;99821.25;;;22.09
82400;BMP280;72039;48.812;8.198;2023-09-18T10:27:14;99808.50;;;22.14
82400;BMP280;72039;48.812;8.198;2023-09-18T10:29:41;99809.91;;;22.15
82400;BMP280;72039;48.812;8.198;2023-09-18T10:32:17;99792.88;;;22.19
82400;BMP280;72039;48.812;8.198;2023-09-18T10:34:44;99808.38;;;22.24
82400;BMP280;72039;48.812;8.198;2023-09-18T10:37:13;99802.00;;;22.27
82400;BMP280;72039;48.812;8.198;2023-09-18T10:39:41;99792.78;;;22.31
82400;BMP280;72039;48.812;8.198;2023-09-18T10:42:17;99794.13;;;22.36
82400;BMP280;72039;48.812;8.198;2023-09-18T10:44:47;99785.63;;;22.40
82400;BMP280;72039;48.812;8.198;2023-09-18T10:47:16;99788.41;;;22.42
82400;BMP280;72039;48.812;8.198;2023-09-18T10:49:43;99801.09;;;22.45
82400;BMP280;72039;48.812;8.198;2023-09-18T10:52:14;99801.75;;;22.50
82400;BMP280;72039;48.812;8.198;2023-09-18T10:54:40;99813.00;;;22.54
82400;BMP280;72039;48.812;8.198;2023-09-18T10:57:08;99815.75;;;22.60
82400;BMP280;72039;48.812;8.198;2023-09-18T10:59:33;99813.59;;;22.63
82400;BMP280;72039;48.812;8.198;2023-09-18T11:02:03;99808.56;;;22.69
82400;BMP280;72039;48.812;8.198;2023-09-18T11:04:33;99818.41;;;22.74
82400;BMP280;72039;48.812;8.198;2023-09-18T11:07:26;99824.72;;;22.79
82400;BMP280;72039;48.812;8.198;2023-09-18T11:09:51;99827.47;;;22.85
82400;BMP280;72039;48.812;8.198;2023-09-18T11:12:19;99818.25;;;22.89
82400;BMP280;72039;48.812;8.198;2023-09-18T11:22:56;99821.94;;;23.26
82400;BMP280;72039;48.812;8.198;2023-09-18T11:28:05;99827.91;;;23.53
82400;BMP280;72039;48.812;8.198;2023-09-18T11:30:48;99831.19;;;23.70
82400;BMP280;72039;48.812;8.198;2023-09-18T11:33:29;99844.56;;;23.76
82400;BMP280;72039;48.812;8.198;2023-09-18T11:35:55;99831.84;;;23.73
82400;BMP280;72039;48.812;8.198;2023-09-18T11:38:21;99834.72;;;23.71
82400;BMP280;72039;48.812;8.198;2023-09-18T11:40:48;99839.66;;;23.72
82400;BMP280;72039;48.812;8.198;2023-09-18T11:43:28;99826.19;;;23.73
82400;BMP280;72039;48.812;8.198;2023-09-18T11:46:03;99832.59;;;23.71
82400;BMP280;72039;48.812;8.198;2023-09-18T11:48:29;99822.00;;;23.70
82400;BMP280;72039;48.812;8.198;2023-09-18T11:51:01;99816.94;;;23.76
82400;BMP280;72039;48.812;8.198;2023-09-18T11:53:34;99818.91;;;23.84
82400;BMP280;72039;48.812;8.198;2023-09-18T11:56:02;99819.56;;;23.86
82400;BMP280;72039;48.812;8.198;2023-09-18T11:58:28;99819.56;;;23.86
82400;BMP280;72039;48.812;8.198;2023-09-18T12:00:53;99818.22;;;23.83
82400;BMP280;72039;48.812;8.198;2023-09-18T12:03:23;99814.66;;;23.85
82400;BMP280;72039;48.812;8.198;2023-09-18T12:05:56;99817.38;;;23.91
82400;BMP280;72039;48.812;8.198;2023-09-18T12:08:23;99815.88;;;23.96
82400;BMP280;72039;48.812;8.198;2023-09-18T12:10:55;99815.03;;;24.04
82400;BMP280;72039;48.812;8.198;2023-09-18T12:13:21;99815.66;;;24.08
82400;BMP280;72039;48.812;8.198;2023-09-18T12:18:25;99824.66;;;24.19
82400;BMP280;72039;48.812;8.198;2023-09-18T12:20:54;99808.16;;;24.30
82400;BMP280;72039;48.812;8.198;2023-09-18T12:23:21;99814.44;;;24.36
82400;BMP280;72039;48.812;8.198;2023-09-18T12:25:50;99817.16;;;24.40
82400;BMP280;72039;48.812;8.198;2023-09-18T12:28:17;99826.28;;;24.45
82400;BMP280;72039;48.812;8.198;2023-09-18T12:30:43;99814.94;;;24.47
82400;BMP280;72039;48.812;8.198;2023-09-18T12:33:13;99811.97;;;24.51
82400;BMP280;72039;48.812;8.198;2023-09-18T12:35:42;99811.25;;;24.53
82400;BMP280;72039;48.812;8.198;2023-09-18T12:38:16;99814.72;;;24.55
82400;BMP280;72039;48.812;8.198;2023-09-18T12:40:43;99800.47;;;24.59
82400;BMP280;72039;48.812;8.198;2023-09-18T12:43:11;99795.84;;;24.77
82400;BMP280;72039;48.812;8.198;2023-09-18T12:45:37;99796.72;;;25.02
82400;BMP280;72039;48.812;8.198;2023-09-18T12:48:03;99788.94;;;25.29
82400;BMP280;72039;48.812;8.198;2023-09-18T12:50:30;99787.56;;;25.58
82400;BMP280;72039;48.812;8.198;2023-09-18T12:55:34;99788.06;;;25.91
82400;BMP280;72039;48.812;8.198;2023-09-18T12:58:00;99782.50;;;25.87
82400;BMP280;72039;48.812;8.198;2023-09-18T13:00:30;99774.88;;;25.79
82400;BMP280;72039;48.812;8.198;2023-09-18T13:02:56;99774.34;;;25.73
82400;BMP280;72039;48.812;8.198;2023-09-18T13:05:23;99786.66;;;25.65
82400;BMP280;72039;48.812;8.198;2023-09-18T13:07:53;99771.69;;;25.67
82400;BMP280;72039;48.812;8.198;2023-09-18T13:10:19;99774.53;;;25.67
82400;BMP280;72039;48.812;8.198;2023-09-18T13:12:52;99767.41;;;25.68
82400;BMP280;72039;48.812;8.198;2023-09-18T13:17:56;99779.38;;;25.70
82400;BMP280;72039;48.812;8.198;2023-09-18T13:20:25;99757.63;;;25.88
82400;BMP280;72039;48.812;8.198;2023-09-18T13:23:00;99751.66;;;26.23
82400;BMP280;72039;48.812;8.198;2023-09-18T13:25:38;99764.03;;;26.61
82400;BMP280;72039;48.812;8.198;2023-09-18T13:28:08;99759.50;;;26.70
82400;BMP280;72039;48.812;8.198;2023-09-18T13:30:36;99758.28;;;26.63
82400;BMP280;72039;48.812;8.198;2023-09-18T13:33:06;99766.03;;;26.42
82400;BMP280;72039;48.812;8.198;2023-09-18T13:35:37;99758.03;;;26.23
82400;BMP280;72039;48.812;8.198;2023-09-18T13:38:06;99765.25;;;25.95
82400;BMP280;72039;48.812;8.198;2023-09-18T13:40:34;99774.31;;;25.75
82400;BMP280;72039;48.812;8.198;2023-09-18T13:43:01;99775.38;;;25.61
82400;BMP280;72039;48.812;8.198;2023-09-18T13:45:41;99777.81;;;25.48
82400;BMP280;72039;48.812;8.198;2023-09-18T13:48:07;99775.81;;;25.45
82400;BMP280;72039;48.812;8.198;2023-09-18T13:50:33;99760.22;;;25.44
82400;BMP280;72039;48.812;8.198;2023-09-18T13:52:58;99771.31;;;25.54
82400;BMP280;72039;48.812;8.198;2023-09-18T13:55:25;99755.53;;;25.59
82400;BMP280;72039;48.812;8.198;2023-09-18T13:57:52;99747.50;;;25.68
82400;BMP280;72039;48.812;8.198;2023-09-18T14:00:21;99750.88;;;25.74
82400;BMP280;72039;48.812;8.198;2023-09-18T14:02:47;99742.19;;;25.80
82400;BMP280;72039;48.812;8.198;2023-09-18T14:05:14;99743.75;;;25.75
82400;BMP280;72039;48.812;8.198;2023-09-18T14:07:40;99738.88;;;25.72
82400;BMP280;72039;48.812;8.198;2023-09-18T14:10:13;99743.88;;;25.71
82400;BMP280;72039;48.812;8.198;2023-09-18T14:12:38;99732.00;;;25.63
82400;BMP280;72039;48.812;8.198;2023-09-18T14:15:08;99735.69;;;25.57
82400;BMP280;72039;48.812;8.198;2023-09-18T14:17:34;99749.38;;;25.50
82400;BMP280;72039;48.812;8.198;2023-09-18T14:20:00;99716.19;;;25.43
82400;BMP280;72039;48.812;8.198;2023-09-18T14:22:26;99712.06;;;25.38
82400;BMP280;72039;48.812;8.198;2023-09-18T14:24:52;99710.72;;;25.35
82400;BMP280;72039;48.812;8.198;2023-09-18T14:27:17;99715.84;;;25.28
82400;BMP280;72039;48.812;8.198;2023-09-18T14:29:43;99720.91;;;25.25
82400;BMP280;72039;48.812;8.198;2023-09-18T14:32:08;99713.13;;;25.24
82400;BMP280;72039;48.812;8.198;2023-09-18T14:34:34;99735.94;;;25.20
82400;BMP280;72039;48.812;8.198;2023-09-18T14:37:06;99707.59;;;25.18